Flight Track Log - Related Links

Times and Time Zones

All times are in EDT time to prevent confusion due to time zone crossing. See the ASA525 flight status page for this flight to view local times or setup timezone preferences in your user account.

Time Position Orientation Groundspeed Altitude Reporting Facility
EDT Latitude Longitude Course Direction KTS MPH feet Rate Location/Type
Wed 02:10:26 PM 34.1833 -118.3667 205° Southwest 168 193 1,900  Level Southern California TRACON
Wed 02:10:59 PM 34.1639 -118.3778 205° Southwest 188 216 2,600 1,958 Climbing Los Angeles Center
Wed 02:12:01 PM 34.1908 -118.4339 300° West 227 261 5,000 1,839 Climbing Los Angeles Center
Wed 02:13:03 PM 34.2358 -118.4719 325° Northwest 244 281 6,400 2,256 Climbing Los Angeles Center
Wed 02:14:06 PM 34.3306 -118.5369 330° Northwest 282 325 9,700 2,880 Climbing Los Angeles Center
Wed 02:15:08 PM 34.4061 -118.5886 331° Northwest 308 354 12,400 2,468 Climbing Los Angeles Center
Wed 02:16:10 PM 34.4850 -118.6425 331° Northwest 325 374 14,800 2,419 Climbing Los Angeles Center
Wed 02:17:12 PM 34.5750 -118.7036 331° Northwest 369 425 17,400 2,468 Climbing Los Angeles Center
Wed 02:18:14 PM 34.6694 -118.7714 329° Northwest 401 461 19,900 2,758 Climbing Los Angeles Center
Wed 02:19:16 PM 34.7889 -118.8531 331° Northwest 410 472 23,100 2,661 Climbing Los Angeles Center
Wed 02:20:18 PM 34.9050 -118.8975 343° North 425 489 25,400 2,081 Climbing Los Angeles Center
Wed 02:21:20 PM 35.0228 -118.9386 344° North 438 504 27,400 1,872 Climbing Los Angeles Center
Wed 02:22:23 PM 35.1433 -118.9886 341° North 476 548 29,300 2,208 Climbing Los Angeles Center
Wed 02:23:25 PM 35.2522 -119.0681 329° Northwest 466 536 32,000 1,935 Climbing Los Angeles Center
Wed 02:24:27 PM 35.3617 -119.1472 329° Northwest 458 527 33,300 1,210 Climbing Los Angeles Center
Wed 02:25:29 PM 35.4981 -119.2500 328° Northwest 475 547 34,500 1,355 Climbing Los Angeles Center
Wed 02:26:31 PM 35.6150 -119.3356 329° Northwest 487 560 36,100 1,597 Climbing Los Angeles Center
Wed 02:27:33 PM 35.7292 -119.4217 329° Northwest 487 560 37,800 1,500 Climbing Los Angeles Center
Wed 02:28:35 PM 35.8417 -119.5072 328° Northwest 481 554 39,200 1,065 Climbing Los Angeles Center
Wed 02:29:37 PM 35.9589 -119.5775 334° Northwest 480 552 40,000 387 Climbing Los Angeles Center
Wed 02:30:39 PM 36.0875 -119.6111 348° North 478 550 40,000  Level Los Angeles Center
Wed 02:31:41 PM 36.2408 -119.6528 348° North 472 543 40,000  Level Los Angeles Center
Wed 02:32:43 PM 36.3439 -119.6808 348° North 474 545 40,000  Level Los Angeles Center
Wed 02:34:06 PM 36.5456 -119.7322 348° North 468 539 40,000  Level Oakland Center
Wed 02:35:08 PM 36.6742 -119.7683 347° North 473 544 40,000  Level Oakland Center
Wed 02:36:10 PM 36.8000 -119.8014 348° North 466 536 40,000  Level Oakland Center
Wed 02:37:12 PM 36.9261 -119.8342 348° North 465 535 40,000  Level Oakland Center
Wed 02:38:13 PM 37.0531 -119.8689 348° North 468 539 40,000  Level Oakland Center
Wed 02:39:15 PM 37.1897 -119.9067 348° North 462 532 40,000  Level Oakland Center
Wed 02:40:17 PM 37.3150 -119.9422 347° North 463 533 40,000  Level Oakland Center
Wed 02:41:19 PM 37.4428 -119.9772 348° North 466 536 40,000  Level Oakland Center
Wed 02:42:20 PM 37.5944 -120.0183 348° North 467 537 40,000  Level Oakland Center
Wed 02:43:22 PM 37.7217 -120.0536 348° North 467 537 40,000  Level Oakland Center
Wed 02:44:24 PM 37.8486 -120.0889 348° North 468 539 40,000  Level Oakland Center
Wed 02:45:25 PM 37.9750 -120.1253 347° North 467 537 40,000  Level Oakland Center
Wed 02:46:27 PM 38.1014 -120.1606 348° North 466 536 40,000  Level Oakland Center
Wed 02:47:29 PM 38.2278 -120.1958 348° North 465 535 40,000  Level Oakland Center
Wed 02:48:30 PM 38.3775 -120.2389 347° North 461 531 40,000  Level Oakland Center
Wed 02:49:32 PM 38.5022 -120.2747 347° North 460 529 40,000  Level Oakland Center
Wed 02:50:34 PM 38.6275 -120.3097 348° North 461 531 40,000  Level Oakland Center
Wed 02:51:35 PM 38.7511 -120.3453 347° North 457 526 40,000  Level Oakland Center
Wed 02:52:37 PM 38.8753 -120.3825 347° North 460 529 40,000  Level Oakland Center
Wed 02:53:39 PM 38.9989 -120.4175 348° North 456 525 40,000  Level Oakland Center
Wed 02:54:40 PM 39.1233 -120.4542 347° North 458 527 40,000  Level Oakland Center
Wed 02:55:42 PM 39.2717 -120.4961 348° North 457 526 40,000  Level Oakland Center
Wed 02:56:43 PM 39.3933 -120.5325 347° North 450 518 40,000  Level Oakland Center
Wed 02:57:45 PM 39.5169 -120.5686 347° North 453 521 40,000  Level Oakland Center
Wed 02:58:46 PM 39.6389 -120.6042 347° North 452 520 40,000  Level Oakland Center
Wed 02:59:48 PM 39.7611 -120.6419 347° North 451 519 40,000  Level Oakland Center
Wed 03:00:50 PM 39.8836 -120.6775 347° North 450 518 40,000  Level Oakland Center
Wed 03:01:51 PM 40.0258 -120.7206 347° North 457 526 40,000  Level Oakland Center
Wed 03:02:45 PM 40.1381 -120.7514 348° North 459 528 40,000  Level Seattle Center
Wed 03:03:47 PM 40.2617 -120.7883 347° North 457 526 40,000  Level Seattle Center
Wed 03:04:48 PM 40.3853 -120.8256 347° North 458 527 40,000  Level Seattle Center
Wed 03:05:58 PM 40.5306 -120.8717 346° North 451 519 40,000  Level Oakland Center
Wed 03:06:51 PM 40.6300 -120.9008 347° North 456 525 40,000  Level Seattle Center
Wed 03:07:52 PM 40.7511 -120.9369 347° North 451 519 40,000  Level Seattle Center
Wed 03:08:54 PM 40.8989 -120.9819 347° North 454 522 40,000  Level Seattle Center
Wed 03:09:55 PM 41.0133 -121.0181 347° North 454 522 40,000  Level Seattle Center
Wed 03:10:57 PM 41.1317 -121.0536 347° North 453 521 40,000  Level Seattle Center
Wed 03:11:58 PM 41.2667 -121.0967 347° North 454 522 40,000  Level Seattle Center
Wed 03:13:00 PM 41.3886 -121.1350 347° North 452 520 40,000  Level Seattle Center
Wed 03:14:01 PM 41.5122 -121.1728 347° North 456 525 40,000  Level Seattle Center
Wed 03:15:03 PM 41.6350 -121.2111 347° North 456 525 40,000  Level Seattle Center
Wed 03:16:04 PM 41.7567 -121.2478 347° North 451 519 40,000  Level Seattle Center
Wed 03:17:06 PM 41.9039 -121.2936 347° North 454 522 40,000  Level Seattle Center
Wed 03:18:07 PM 42.0275 -121.3322 347° North 457 526 40,000  Level Seattle Center
Wed 03:19:09 PM 42.1508 -121.3719 347° North 458 527 40,000  Level Seattle Center
Wed 03:20:10 PM 42.2764 -121.4142 346° North 469 540 40,000  Level Seattle Center
Wed 03:21:12 PM 42.4039 -121.4536 347° North 473 544 40,000  Level Seattle Center
Wed 03:22:13 PM 42.5303 -121.4956 346° North 470 541 40,000  Level Seattle Center
Wed 03:23:15 PM 42.6564 -121.5369 346° North 468 539 40,000  Level Seattle Center
Wed 03:24:16 PM 42.8033 -121.5831 347° North 469 540 40,000  Level Seattle Center
Wed 03:25:17 PM 42.9308 -121.6253 346° North 472 543 40,000  Level Seattle Center
Wed 03:26:19 PM 43.0628 -121.6700 346° North 469 540 40,000  Level Seattle Center
Wed 03:27:20 PM 43.1906 -121.7097 347° North 472 543 40,000  Level Seattle Center
Wed 03:28:22 PM 43.3286 -121.7581 346° North 475 547 40,000  Level Seattle Center
Wed 03:29:23 PM 43.4583 -121.8003 347° North 476 548 40,000  Level Seattle Center
Wed 03:30:25 PM 43.5883 -121.8439 346° North 479 551 40,000  Level Seattle Center
Wed 03:31:26 PM 43.7258 -121.8881 347° North 478 550 40,000  Level Seattle Center
Wed 03:32:27 PM 43.8550 -121.9311 346° North 476 548 40,000  Level Seattle Center
Wed 03:33:29 PM 43.9836 -121.9739 347° North 476 548 40,000  Level Seattle Center
Wed 03:34:30 PM 44.1108 -122.0181 346° North 473 544 40,000  Level Seattle Center
Wed 03:35:32 PM 44.2400 -122.0631 346° North 476 548 40,000  Level Seattle Center
Wed 03:36:33 PM 44.3692 -122.1058 347° North 478 550 40,000  Level Seattle Center
Wed 03:37:34 PM 44.4975 -122.1503 346° North 476 548 40,000  Level Seattle Center
Wed 03:38:36 PM 44.6264 -122.1944 346° North 477 549 40,000  Level Seattle Center
Wed 03:39:37 PM 44.7792 -122.2481 346° North 475 547 40,000  Level Seattle Center
Wed 03:40:39 PM 44.8856 -122.2856 346° North 473 544 40,000  Level Seattle Center
Wed 03:41:40 PM 45.0361 -122.3389 346° North 469 540 40,000  Level Seattle Center
Wed 03:42:42 PM 45.1631 -122.3839 346° North 472 543 40,000  Level Seattle Center
Wed 03:43:43 PM 45.2892 -122.4261 347° North 471 542 40,000  Level Seattle Center
Wed 03:44:44 PM 45.4144 -122.4725 345° North 466 536 40,000 -780 Level Seattle Center
Wed 03:45:46 PM 45.5403 -122.5175 346° North 468 539 38,400 -2,146 Descending Seattle Center
Wed 03:46:47 PM 45.6647 -122.5619 346° North 465 535 35,600 -3,000 Descending Seattle Center
Wed 03:47:48 PM 45.7933 -122.6019 348° North 473 544 32,300 -3,268 Descending Seattle Center
Wed 03:48:50 PM 45.9267 -122.6339 351° North 485 558 28,900 -2,878 Descending Seattle Center
Wed 03:49:51 PM 46.0808 -122.6722 350° North 473 544 26,400 -2,195 Descending Seattle Center
Wed 03:50:53 PM 46.2011 -122.7006 351° North 450 518 24,400 -2,390 Descending Seattle Center
Wed 03:51:54 PM 46.3219 -122.7225 353° North 418 481 21,500 -2,754 Descending Seattle Center
Wed 03:52:55 PM 46.4308 -122.7222 360° North 401 461 18,800 -2,361 Descending Seattle Center
Wed 03:53:56 PM 46.5383 -122.7131 North 390 449 16,700 -2,000 Descending Seattle Center
Wed 03:54:58 PM 46.6400 -122.7094 North 371 427 14,700 -2,039 Descending Seattle Center
Wed 03:55:39 PM 46.7142 -122.7083 North 363 418 13,200 -2,113 Descending Seattle Center
Wed 03:56:09 PM 46.7669 -122.7061 North 354 407 12,200 -1,926 Descending Seattle Center
Wed 03:57:00 PM 46.8428 -122.6711 18° North 345 397 10,600 -1,168 Descending Seattle Center
Wed 03:58:02 PM 46.9086 -122.5789 44° Northeast 324 373 10,000 -995 Descending Seattle Center
Wed 04:00:25 PM 47.0533 -122.4086 39° Northeast 265 305 7,200 -1,174 Descending Seattle Center
Wed 04:01:06 PM 47.0992 -122.3747 27° Northeast 262 302 6,400 -824 Descending Seattle Center
Wed 04:02:07 PM 47.1625 -122.3394 21° North 240 276 5,800 -984 Descending Seattle Center
Wed 04:03:08 PM 47.2267 -122.3181 13° North 222 255 4,400 -1,220 Descending Seattle Center
Wed 04:04:10 PM 47.2881 -122.3192 359° North 218 251 3,300 -1,073 Descending Seattle Center
Wed 04:05:11 PM 47.3439 -122.3189 360° North 204 235 2,200 -930 Descending Seattle Center
Wed 04:06:19 PM 47.3933 -122.3203 359° North 149 171 1,300 -787 Descending Seattle Center
Wed 04:07:13 PM 47.4286 -122.3183 North 137 158 600 -522 Descending Seattle Center
Wed 04:08:14 PM 47.4653 -122.3186 360° North 135 155 300 -295 Descending Seattle Center

Login

Don't have an account? Register now (free) for customized features, flight alerts, and more!